Delhi, Iowa
Current Conditions -  °F | °C
As of 9:15 PM on Saturday 22 Nov 2014 (Local Time) from KMXO Reporting Station
Overcast Overcast  
Wind Chill: 11°   Ceiling: 2500
Heat Index: 11°   Visibility: 10mi
Dew Point: 10°   Wind: 13mph
Humidity: 94%   Direction: 170°S
Pressure: 29.73"   Gusts: NA
Location:  42.43°N, 91.33°W
Report Text: KMXO 230315Z AUTO 17011KT 10SM BKN025 OVC034 11/10 A2973 RMK AO2
Loading
Personal Weather Stations






























Interactive Weather Map New forecast layout! Learn more

10-Day Weather Forecast

Advertisements
Track Severe Weather on mobile